createdAt,value
2023-03-22T00:00:15.566Z,7.09
2023-03-22T00:05:40.174Z,7.98
2023-03-22T00:10:43.175Z,8.53
2023-03-22T00:15:49.326Z,8.82
2023-03-22T00:20:54.920Z,7.41
2023-03-22T00:25:58.028Z,5.33
2023-03-22T00:31:02.647Z,4.99
2023-03-22T00:36:08.923Z,6.32
2023-03-22T00:41:14.729Z,7.14
2023-03-22T00:46:20.736Z,7.84
2023-03-22T00:51:24.571Z,8.42
2023-03-22T00:56:29.142Z,8.77
2023-03-22T01:01:32.556Z,7.21
2023-03-22T01:06:35.802Z,6.52
2023-03-22T01:11:38.709Z,7.95
2023-03-22T01:16:41.887Z,8.87
2023-03-22T01:21:45.085Z,9.59
2023-03-22T01:26:48.342Z,9.09
2023-03-22T01:31:52.312Z,7.12
2023-03-22T01:36:55.375Z,7.98
2023-03-22T01:41:58.693Z,8.97
2023-03-22T01:47:01.803Z,9.56
2023-03-22T01:52:14.847Z,9.73
2023-03-22T01:57:18.676Z,7.94
2023-03-22T02:02:22.350Z,7.58
2023-03-22T02:07:28.574Z,8.79
2023-03-22T02:12:46.735Z,9.54
2023-03-22T02:18:46.064Z,10.49
2023-03-22T02:24:07.502Z,10.88
2023-03-22T02:29:23.109Z,9.02
2023-03-22T02:34:32.883Z,8.85
2023-03-22T02:39:38.945Z,9.62
2023-03-22T02:44:51.793Z,10.31
2023-03-22T02:50:36.797Z,10.74
2023-03-22T02:55:49.497Z,10.04
2023-03-22T03:00:57.637Z,7.94
2023-03-22T03:06:08.629Z,7.28
2023-03-22T03:11:11.943Z,8.49
2023-03-22T03:16:17.670Z,9.30
2023-03-22T03:21:30.384Z,9.72
2023-03-22T03:26:53.741Z,9.06
2023-03-22T03:32:04.470Z,7.38
2023-03-22T03:37:09.985Z,8.27
2023-03-22T03:42:16.679Z,9.00
2023-03-22T03:47:21.114Z,9.33
2023-03-22T03:52:24.738Z,9.67
2023-03-22T03:57:27.642Z,9.78
2023-03-22T04:02:30.777Z,9.90
2023-03-22T04:07:34.377Z,9.99
2023-03-22T04:12:37.516Z,8.39
2023-03-22T04:17:40.643Z,8.93
2023-03-22T04:22:45.029Z,9.64
2023-03-22T04:27:51.298Z,10.22
2023-03-22T04:32:54.941Z,10.51
2023-03-22T04:37:59.478Z,10.69
2023-03-22T04:43:04.240Z,9.26
2023-03-22T04:48:08.107Z,9.56
2023-03-22T04:53:12.610Z,10.27
2023-03-22T04:58:16.724Z,10.77
2023-03-22T05:03:21.757Z,11.08
2023-03-22T05:08:27.145Z,10.69
2023-03-22T05:13:30.145Z,9.52
2023-03-22T05:18:33.460Z,10.45
2023-03-22T05:23:36.468Z,11.04
2023-03-22T05:28:39.573Z,11.35
2023-03-22T05:33:42.990Z,11.56
2023-03-22T05:38:46.928Z,10.22
2023-03-22T05:43:51.168Z,10.69
2023-03-22T05:48:54.167Z,11.04
2023-03-22T05:53:57.146Z,11.32
2023-03-22T05:59:00.176Z,11.51
2023-03-22T06:04:04.010Z,11.63
2023-03-22T06:09:16.976Z,11.43
2023-03-22T06:14:20.978Z,9.84
2023-03-22T06:19:25.830Z,11.19
2023-03-22T06:24:28.940Z,12.08
2023-03-22T06:29:32.325Z,11.20
2023-03-22T06:34:35.866Z,10.23
2023-03-22T06:39:38.975Z,11.59
2023-03-22T06:44:44.123Z,12.41
2023-03-22T06:49:47.236Z,12.27
2023-03-22T06:54:50.338Z,11.14
2023-03-22T06:59:53.755Z,12.35
2023-03-22T07:04:56.762Z,12.92
2023-03-22T07:09:59.870Z,11.29
2023-03-22T07:15:03.519Z,10.89
2023-03-22T07:20:07.274Z,12.13
2023-03-22T07:25:11.150Z,12.72
2023-03-22T07:30:14.461Z,13.00
2023-03-22T07:35:19.018Z,13.26
2023-03-22T07:40:23.234Z,11.61
2023-03-22T07:45:26.404Z,12.23
2023-03-22T07:50:29.539Z,13.40
2023-03-22T07:55:32.882Z,13.71
2023-03-22T08:00:35.989Z,12.96
2023-03-22T08:05:43.715Z,11.99
2023-03-22T08:10:51.357Z,12.62
2023-03-22T08:15:54.357Z,12.82
2023-03-22T08:20:59.194Z,12.85
2023-03-22T08:26:02.190Z,12.82
2023-03-22T08:31:15.119Z,13.10
2023-03-22T08:36:23.059Z,13.30
2023-03-22T08:41:26.053Z,13.26
2023-03-22T08:46:29.180Z,11.70
2023-03-22T08:51:32.367Z,11.89
2023-03-22T08:56:38.373Z,12.41
2023-03-22T09:01:41.619Z,12.74
2023-03-22T09:06:45.788Z,13.10
2023-03-22T09:11:48.895Z,13.44
2023-03-22T09:16:52.110Z,13.52
2023-03-22T09:21:55.317Z,13.47
2023-03-22T09:26:58.831Z,13.78
2023-03-22T09:32:01.943Z,13.63
2023-03-22T09:37:05.152Z,13.47
2023-03-22T09:42:24.238Z,13.50
2023-03-22T09:47:44.195Z,13.64
2023-03-22T09:52:48.758Z,14.02
2023-03-22T09:58:20.100Z,14.32
2023-03-22T10:03:54.677Z,14.07
2023-03-22T10:08:57.719Z,14.23
2023-03-22T10:14:07.995Z,14.72
2023-03-22T10:19:24.624Z,14.70
2023-03-22T10:24:34.258Z,15.15
2023-03-22T10:29:43.706Z,15.18
2023-03-22T10:34:47.518Z,15.26
2023-03-22T10:39:57.182Z,15.29
2023-03-22T10:45:07.474Z,15.16
2023-03-22T10:50:22.999Z,14.99
2023-03-22T10:55:26.625Z,14.92
2023-03-22T11:00:29.965Z,15.30
2023-03-22T11:05:33.250Z,15.42
2023-03-22T11:10:36.691Z,15.30
2023-03-22T11:15:49.090Z,15.40
2023-03-22T11:21:17.389Z,15.59
2023-03-22T11:26:27.775Z,15.03
2023-03-22T11:31:56.072Z,14.40
2023-03-22T11:37:08.477Z,15.08
2023-03-22T11:42:21.147Z,15.14
2023-03-22T11:47:30.515Z,15.24
2023-03-22T11:52:33.908Z,15.73
2023-03-22T11:57:38.134Z,15.64
2023-03-22T12:02:51.793Z,14.45
2023-03-22T12:08:18.043Z,15.07
2023-03-22T12:13:27.859Z,15.73
2023-03-22T12:18:44.812Z,15.85
2023-03-22T12:23:48.055Z,16.13
2023-03-22T12:28:56.510Z,16.02
2023-03-22T12:34:07.501Z,14.66
2023-03-22T12:39:24.318Z,15.18
2023-03-22T12:44:34.296Z,15.77
2023-03-22T12:50:00.457Z,16.10
2023-03-22T12:55:06.279Z,16.31
2023-03-22T13:00:16.130Z,16.39
2023-03-22T13:05:19.691Z,15.41
2023-03-22T13:10:32.605Z,15.16
2023-03-22T13:15:42.242Z,16.13
2023-03-22T13:21:14.787Z,16.49
2023-03-22T13:26:19.739Z,16.30
2023-03-22T13:31:38.930Z,16.51
2023-03-22T13:36:50.032Z,15.66
2023-03-22T13:42:06.111Z,15.03
2023-03-22T13:47:43.955Z,16.02
2023-03-22T13:53:14.808Z,16.60
2023-03-22T13:58:48.562Z,16.09
2023-03-22T14:03:52.145Z,15.37
2023-03-22T14:09:02.354Z,16.52
2023-03-22T14:14:13.137Z,17.00
2023-03-22T14:19:21.414Z,15.95
